createdAt,value
2023-02-24T03:42:11.294Z,27.51
2023-02-24T03:43:11.280Z,27.47
2023-02-24T03:44:11.266Z,27.48
2023-02-24T03:45:11.263Z,27.49
2023-02-24T03:46:11.303Z,27.37
2023-02-24T03:47:11.238Z,27.45
2023-02-24T03:48:11.221Z,27.59
2023-02-24T03:49:11.208Z,27.62
2023-02-24T03:50:11.196Z,27.55
2023-02-24T03:51:11.196Z,27.45
2023-02-24T03:52:11.177Z,27.37
2023-02-24T03:53:11.170Z,27.37
2023-02-24T03:54:11.156Z,27.49
2023-02-24T03:55:11.181Z,27.62
2023-02-24T03:56:11.167Z,27.43
2023-02-24T03:57:11.139Z,27.35
2023-02-24T03:58:11.124Z,27.35
2023-02-24T03:59:11.120Z,27.46
2023-02-24T04:00:11.108Z,27.53
2023-02-24T04:01:11.125Z,27.45
2023-02-24T04:02:11.135Z,27.44
2023-02-24T04:03:11.080Z,27.28
2023-02-24T04:04:11.064Z,27.32
2023-02-24T04:05:11.076Z,27.44
2023-02-24T04:06:11.061Z,27.48
2023-02-24T04:07:11.058Z,27.37
2023-02-24T04:08:11.031Z,27.33
2023-02-24T04:09:11.020Z,27.31
2023-02-24T04:10:11.008Z,27.39
2023-02-24T04:11:11.016Z,27.41
2023-02-24T04:12:10.979Z,27.44
2023-02-24T04:13:10.971Z,27.37
2023-02-24T04:14:10.959Z,27.23
2023-02-24T04:15:10.972Z,27.24
2023-02-24T04:16:11.042Z,27.33
2023-02-24T04:17:10.958Z,27.40
2023-02-24T04:18:10.922Z,27.37
2023-02-24T04:19:10.909Z,27.29
2023-02-24T04:20:10.911Z,27.18
2023-02-24T04:21:10.895Z,27.09
2023-02-24T04:22:10.893Z,27.25
2023-02-24T04:23:10.879Z,27.35
2023-02-24T04:24:10.869Z,27.25
2023-02-24T04:25:10.855Z,27.23
2023-02-24T04:26:10.854Z,27.19
2023-02-24T04:27:10.843Z,27.20
2023-02-24T04:28:10.846Z,27.27
2023-02-24T04:29:10.820Z,27.31
2023-02-24T04:30:10.870Z,27.13
2023-02-24T04:31:11.020Z,27.07
2023-02-24T04:32:11.017Z,27.02
2023-02-24T04:33:10.773Z,27.13
2023-02-24T04:34:10.768Z,27.21
2023-02-24T04:35:10.753Z,27.23
2023-02-24T04:36:10.741Z,27.09
2023-02-24T04:37:10.742Z,27.10
2023-02-24T04:38:10.732Z,26.97
2023-02-24T04:39:10.716Z,27.16
2023-02-24T04:40:10.709Z,27.19
2023-02-24T04:41:10.705Z,27.24
2023-02-24T04:42:10.684Z,27.13
2023-02-24T04:43:10.670Z,27.07
2023-02-24T04:44:10.677Z,26.95
2023-02-24T04:45:10.663Z,27.11
2023-02-24T04:46:10.679Z,27.17
2023-02-24T04:47:10.670Z,27.22
2023-02-24T04:48:10.647Z,27.05
2023-02-24T04:49:10.640Z,26.95
2023-02-24T04:50:10.634Z,27.10
2023-02-24T04:51:10.631Z,27.15
2023-02-24T04:52:10.623Z,27.16
2023-02-24T04:53:10.616Z,27.06
2023-02-24T04:54:10.603Z,26.97
2023-02-24T04:55:10.604Z,26.94
2023-02-24T04:56:10.594Z,27.03
2023-02-24T04:57:10.612Z,27.13
2023-02-24T04:58:10.603Z,27.14
2023-02-24T04:59:10.570Z,27.01
2023-02-24T05:00:10.669Z,26.94
2023-02-24T05:01:10.579Z,27.02
2023-02-24T05:02:10.591Z,27.07
2023-02-24T05:03:10.581Z,27.09
2023-02-24T05:04:10.676Z,27.03
2023-02-24T05:05:10.571Z,26.93
2023-02-24T05:06:10.570Z,26.92
2023-02-24T05:07:10.547Z,26.97
2023-02-24T05:08:10.578Z,27.05
2023-02-24T05:09:10.517Z,27.06
2023-02-24T05:10:10.528Z,26.99
2023-02-24T05:11:10.558Z,26.80
2023-02-24T05:12:10.503Z,26.93
2023-02-24T05:13:10.569Z,26.98
2023-02-24T05:14:10.486Z,26.99
2023-02-24T05:15:10.553Z,27.08
2023-02-24T05:16:10.597Z,27.04
2023-02-24T05:17:10.448Z,26.89
2023-02-24T05:18:10.433Z,26.94
2023-02-24T05:19:10.395Z,26.99
2023-02-24T05:20:10.395Z,26.98
2023-02-24T05:21:10.380Z,26.90
2023-02-24T05:22:10.398Z,26.85
2023-02-24T05:23:10.431Z,26.83
2023-02-24T05:24:10.405Z,26.89
2023-02-24T05:25:10.345Z,26.91
2023-02-24T05:26:10.362Z,27.01
2023-02-24T05:27:10.362Z,26.84
2023-02-24T05:28:10.310Z,26.72
2023-02-24T05:29:10.327Z,26.75
2023-02-24T05:30:10.324Z,26.88
2023-02-24T05:31:10.394Z,26.92
2023-02-24T05:32:10.455Z,27.02
2023-02-24T05:33:10.255Z,26.78
2023-02-24T05:34:10.248Z,26.73
2023-02-24T05:35:10.249Z,26.78
2023-02-24T05:36:10.249Z,26.90
2023-02-24T05:37:10.279Z,26.95
2023-02-24T05:38:10.232Z,27.02
2023-02-24T05:39:10.218Z,26.87
2023-02-24T05:40:10.202Z,26.81
2023-02-24T05:41:10.197Z,26.83
2023-02-24T05:42:10.189Z,26.89
2023-02-24T05:43:10.181Z,26.99
2023-02-24T05:44:10.175Z,26.98
2023-02-24T05:45:10.157Z,26.76
2023-02-24T05:46:10.138Z,26.62
2023-02-24T05:47:10.121Z,26.80
2023-02-24T05:48:10.112Z,26.84
2023-02-24T05:49:10.098Z,26.95
2023-02-24T05:50:10.093Z,26.93
2023-02-24T05:51:10.072Z,26.82
2023-02-24T05:52:10.206Z,26.75
2023-02-24T05:53:10.054Z,26.85
2023-02-24T05:54:10.068Z,26.92
2023-02-24T05:55:10.041Z,26.91
2023-02-24T05:56:10.039Z,26.82
2023-02-24T05:57:10.041Z,26.73
2023-02-24T05:58:10.035Z,26.69
2023-02-24T05:59:10.038Z,26.87
2023-02-24T06:00:10.029Z,26.93
2023-02-24T06:01:10.019Z,26.82
2023-02-24T06:02:10.084Z,26.69
2023-02-24T06:03:10.017Z,26.70
2023-02-24T06:04:10.006Z,26.75
2023-02-24T06:05:09.988Z,26.84
2023-02-24T06:06:09.973Z,26.85
2023-02-24T06:07:09.966Z,26.81
2023-02-24T06:08:09.961Z,26.81
2023-02-24T06:09:09.939Z,26.74
2023-02-24T06:11:09.927Z,26.84
2023-02-24T06:12:09.997Z,26.87
2023-02-24T06:13:09.904Z,26.76
2023-02-24T06:14:09.904Z,26.72
2023-02-24T06:15:09.915Z,26.71
2023-02-24T06:16:09.905Z,26.80
2023-02-24T06:17:09.865Z,26.81
2023-02-24T06:18:09.867Z,26.84
2023-02-24T06:19:09.854Z,26.72
2023-02-24T06:20:09.842Z,26.68
2023-02-24T06:21:09.833Z,26.59
2023-02-24T06:22:09.840Z,26.75
2023-02-24T06:23:09.811Z,26.83
2023-02-24T06:24:09.811Z,26.86
2023-02-24T06:25:09.804Z,26.76
2023-02-24T06:26:09.822Z,26.64
2023-02-24T06:27:09.833Z,26.63
2023-02-24T06:28:09.793Z,26.73
2023-02-24T06:29:09.787Z,26.84
2023-02-24T06:30:09.767Z,26.96
2023-02-24T06:31:09.769Z,27.02
2023-02-24T06:32:09.949Z,27.31
2023-02-24T06:33:09.742Z,27.56
2023-02-24T06:34:09.772Z,28.00
2023-02-24T06:35:09.731Z,28.75
2023-02-24T06:36:09.714Z,29.52
2023-02-24T06:37:09.733Z,29.60
2023-02-24T06:38:09.699Z,30.26
2023-02-24T06:39:09.680Z,30.17
2023-02-24T06:40:09.670Z,30.26
2023-02-24T06:41:09.651Z,30.47
2023-02-24T06:42:09.634Z,30.62
2023-02-24T06:43:09.632Z,30.62
2023-02-24T06:44:09.615Z,30.89
2023-02-24T06:45:09.583Z,31.21
2023-02-24T06:46:09.595Z,31.13
2023-02-24T06:47:09.550Z,31.81
2023-02-24T06:48:09.553Z,32.33
2023-02-24T06:49:09.535Z,32.57
2023-02-24T06:50:09.503Z,32.93
2023-02-24T06:51:09.481Z,33.04
2023-02-24T06:52:09.455Z,33.14
2023-02-24T06:53:09.432Z,33.19
2023-02-24T06:54:09.418Z,33.40
2023-02-24T06:55:09.531Z,33.68
2023-02-24T06:56:09.513Z,33.75
2023-02-24T06:57:09.509Z,33.86
2023-02-24T06:58:09.329Z,34.05
2023-02-24T06:59:09.324Z,34.37
2023-02-24T07:00:09.320Z,34.52
2023-02-24T07:01:09.290Z,34.55
2023-02-24T07:02:09.235Z,34.65
2023-02-24T07:03:09.236Z,34.68
2023-02-24T07:04:09.330Z,34.79
2023-02-24T07:05:09.160Z,34.89
2023-02-24T07:06:09.139Z,34.97
2023-02-24T07:07:09.119Z,34.97
2023-02-24T07:08:09.073Z,35.13
2023-02-24T07:09:09.086Z,35.06
2023-02-24T07:10:09.876Z,35.22
2023-02-24T07:11:08.998Z,35.34
2023-02-24T07:12:08.980Z,35.48
2023-02-24T07:13:08.936Z,35.47
2023-02-24T07:14:08.911Z,35.66
2023-02-24T07:15:08.871Z,35.54
2023-02-24T07:16:08.839Z,35.71
2023-02-24T07:17:08.897Z,35.75
2023-02-24T07:18:08.774Z,35.70
2023-02-24T07:19:08.744Z,35.88
2023-02-24T07:20:08.792Z,35.97
2023-02-24T07:21:08.675Z,36.03
2023-02-24T07:22:08.649Z,35.91
2023-02-24T07:23:08.633Z,36.02
2023-02-24T07:24:08.592Z,36.24
2023-02-24T07:25:08.587Z,36.14
2023-02-24T07:26:08.544Z,36.28
2023-02-24T07:27:08.523Z,36.18
2023-02-24T07:28:08.598Z,36.17
2023-02-24T07:29:08.432Z,36.35
2023-02-24T07:30:08.416Z,36.36
2023-02-24T07:31:08.572Z,36.24
2023-02-24T07:32:08.416Z,36.34
2023-02-24T07:33:08.287Z,36.53
2023-02-24T07:34:08.261Z,36.52
2023-02-24T07:35:08.256Z,36.38
2023-02-24T07:36:08.196Z,36.04
2023-02-24T07:37:08.628Z,35.67
2023-02-24T07:38:08.164Z,35.30
2023-02-24T07:39:08.135Z,35.24
2023-02-24T07:40:08.104Z,35.16
2023-02-24T07:41:08.062Z,34.56
2023-02-24T07:42:08.023Z,34.38
2023-02-24T07:43:07.999Z,34.14
2023-02-24T07:44:07.968Z,33.81
2023-02-24T07:45:08.066Z,33.84
2023-02-24T07:46:07.990Z,34.12
2023-02-24T07:47:08.216Z,34.03
2023-02-24T07:48:07.877Z,33.57
2023-02-24T07:49:07.809Z,33.38
2023-02-24T07:50:07.793Z,33.02
2023-02-24T07:51:07.761Z,32.81
2023-02-24T07:52:07.735Z,32.62
2023-02-24T07:53:07.712Z,32.18
2023-02-24T07:54:07.662Z,32.05
2023-02-24T07:55:07.618Z,31.84
2023-02-24T07:56:07.596Z,31.70
2023-02-24T07:57:07.569Z,31.65
2023-02-24T07:58:07.564Z,31.54
2023-02-24T07:59:07.483Z,31.46
2023-02-24T08:00:08.415Z,31.48
2023-02-24T08:01:07.428Z,31.24
2023-02-24T08:02:07.427Z,31.40
2023-02-24T08:03:07.345Z,31.39
2023-02-24T08:04:07.309Z,31.23
2023-02-24T08:05:07.344Z,31.15
2023-02-24T08:06:07.282Z,31.21
2023-02-24T08:07:07.204Z,31.20
2023-02-24T08:08:07.171Z,31.22
2023-02-24T08:09:07.142Z,31.16
2023-02-24T08:10:07.145Z,30.98
2023-02-24T08:11:07.079Z,30.91
2023-02-24T08:12:07.037Z,30.81
2023-02-24T08:13:07.015Z,30.85
2023-02-24T08:14:06.986Z,30.73
2023-02-24T08:15:06.943Z,30.82
2023-02-24T08:16:06.982Z,30.67
2023-02-24T08:17:06.874Z,30.53
2023-02-24T08:18:06.847Z,30.51
2023-02-24T08:19:06.806Z,30.67
2023-02-24T08:20:07.222Z,30.55
2023-02-24T08:21:06.758Z,30.54
2023-02-24T08:22:06.723Z,30.48
2023-02-24T08:23:06.691Z,30.45
2023-02-24T08:24:06.661Z,30.48
2023-02-24T08:25:06.624Z,30.49
2023-02-24T08:26:06.640Z,30.41
2023-02-24T08:27:06.579Z,30.39
2023-02-24T08:28:08.877Z,30.45
2023-02-24T08:29:06.504Z,30.28
2023-02-24T08:30:06.458Z,30.40
2023-02-24T08:31:06.581Z,30.34
2023-02-24T08:32:06.481Z,30.24
2023-02-24T08:33:06.363Z,30.20
2023-02-24T08:34:06.319Z,30.25
2023-02-24T08:35:06.297Z,30.14
2023-02-24T08:36:06.251Z,30.19
2023-02-24T08:37:06.230Z,30.04
2023-02-24T08:38:06.198Z,29.89
2023-02-24T08:39:06.191Z,29.88
2023-02-24T08:40:06.122Z,29.86
2023-02-24T08:41:06.153Z,29.95
2023-02-24T08:42:06.090Z,30.08
2023-02-24T08:43:06.082Z,30.12
2023-02-24T08:44:06.006Z,30.05
2023-02-24T08:45:06.033Z,30.08
2023-02-24T08:46:05.993Z,30.13
2023-02-24T08:47:06.126Z,30.16
2023-02-24T08:48:05.900Z,30.17
2023-02-24T08:49:05.877Z,30.18
2023-02-24T08:50:05.850Z,30.12
2023-02-24T08:51:05.817Z,30.13
2023-02-24T08:52:05.793Z,30.12
2023-02-24T08:53:05.760Z,30.10
2023-02-24T08:54:05.739Z,30.10
2023-02-24T08:55:05.737Z,30.12
2023-02-24T10:05:03.432Z,28.34
2023-02-24T10:06:03.367Z,28.29
2023-02-24T10:07:03.315Z,28.29
2023-02-24T10:08:03.280Z,28.28
2023-02-24T10:09:03.252Z,28.26
2023-02-24T10:10:03.235Z,28.22
2023-02-24T10:11:03.221Z,28.20
2023-02-24T10:12:03.122Z,28.20
2023-02-24T10:13:03.068Z,28.19
2023-02-24T10:14:04.021Z,28.14
2023-02-24T10:15:03.001Z,28.09
2023-02-24T10:16:06.500Z,28.10
2023-02-24T10:17:02.916Z,28.04
2023-02-24T10:18:02.848Z,27.98
2023-02-24T10:19:02.826Z,28.03
2023-02-24T10:20:02.775Z,28.02
2023-02-24T10:21:02.772Z,27.96
2023-02-24T10:22:02.704Z,27.92
2023-02-24T10:23:02.646Z,27.92
2023-02-24T10:24:02.637Z,27.88
2023-02-24T10:25:02.548Z,27.86
2023-02-24T10:26:06.774Z,27.93
2023-02-24T10:27:08.500Z,27.90
2023-02-24T10:28:03.437Z,27.89
2023-02-24T10:29:02.382Z,27.89
2023-02-24T10:30:02.337Z,27.79
2023-02-24T10:31:02.360Z,27.81
2023-02-24T10:32:02.481Z,27.75
2023-02-24T10:33:02.260Z,27.77
2023-02-24T10:34:02.166Z,27.78
2023-02-24T10:35:02.134Z,27.83
2023-02-24T10:36:02.063Z,27.82
2023-02-24T10:37:02.037Z,27.83
2023-02-24T10:38:01.976Z,27.73
2023-02-24T10:39:02.014Z,27.74
2023-02-24T10:40:01.880Z,27.77
2023-02-24T10:41:01.847Z,27.73
2023-02-24T10:42:01.831Z,27.72
2023-02-24T10:43:01.749Z,27.69
2023-02-24T10:44:01.763Z,28.85
2023-02-24T10:45:02.883Z,29.14
2023-02-24T10:46:01.622Z,29.09
2023-02-24T10:47:01.592Z,29.22
2023-02-24T10:48:01.497Z,29.50
2023-02-24T10:49:01.517Z,29.66
2023-02-24T10:50:01.392Z,31.31
2023-02-24T10:51:01.343Z,30.71
2023-02-24T10:52:01.401Z,30.72
2023-02-24T10:53:01.234Z,31.24
2023-02-24T10:54:01.175Z,31.54
2023-02-24T10:55:01.139Z,31.65
2023-02-24T10:56:01.112Z,31.50
2023-02-24T10:57:01.027Z,31.83
2023-02-24T10:58:00.993Z,32.00
2023-02-24T10:59:01.815Z,32.22
2023-02-24T11:00:00.865Z,32.27
2023-02-24T11:01:00.825Z,31.91
2023-02-24T11:02:00.739Z,32.01
2023-02-24T11:03:00.703Z,32.22
2023-02-24T11:04:00.633Z,32.14
2023-02-24T11:05:01.772Z,31.96
2023-02-24T11:06:00.523Z,31.82
2023-02-24T11:07:00.461Z,31.39
2023-02-24T11:08:00.406Z,31.21
2023-02-24T11:09:00.356Z,31.46
2023-02-24T11:10:00.296Z,31.29
2023-02-24T11:11:00.232Z,30.85
2023-02-24T11:12:00.171Z,30.88
2023-02-24T11:13:08.980Z,30.99
2023-02-24T11:14:01.082Z,30.51
2023-02-24T11:15:00.012Z,30.34
2023-02-24T11:16:00.013Z,29.79
2023-02-24T11:16:59.882Z,29.53
2023-02-24T11:17:59.922Z,28.75
2023-02-24T11:18:59.776Z,28.95
2023-02-24T11:19:59.728Z,29.05
2023-02-24T11:20:59.660Z,28.95
2023-02-24T11:21:59.594Z,28.75
2023-02-24T11:22:59.549Z,28.58
2023-02-24T11:23:59.498Z,28.61
2023-02-24T11:25:01.548Z,28.55
2023-02-24T11:25:59.363Z,28.50
2023-02-24T11:26:59.302Z,28.38
2023-02-24T11:27:59.268Z,28.52
2023-02-24T11:28:59.202Z,28.32
2023-02-24T11:29:59.128Z,28.16
2023-02-24T11:30:59.189Z,28.07
2023-02-24T11:31:59.147Z,28.02
2023-02-24T11:32:59.043Z,27.86
2023-02-24T11:33:58.901Z,28.29
2023-02-24T11:34:58.854Z,28.46
2023-02-24T11:35:58.802Z,29.28
2023-02-24T11:36:58.723Z,28.49
2023-02-24T11:37:58.661Z,28.67
2023-02-24T11:39:11.832Z,28.71
2023-02-24T11:39:59.583Z,28.58
2023-02-24T11:40:58.498Z,28.69
2023-02-24T11:41:58.429Z,28.70
2023-02-24T11:42:58.366Z,28.70
2023-02-24T11:43:58.331Z,28.93
2023-02-24T11:44:58.262Z,29.27
2023-02-24T11:45:58.217Z,30.43
2023-02-24T11:46:58.128Z,30.52
2023-02-24T11:47:58.058Z,30.43
2023-02-24T11:48:57.996Z,30.37
2023-02-24T11:49:57.941Z,30.34
2023-02-24T11:50:57.860Z,30.15
2023-02-24T11:51:57.803Z,30.31
2023-02-24T11:52:57.735Z,30.45
2023-02-24T11:53:57.692Z,30.62
2023-02-24T11:54:57.636Z,30.90
2023-02-24T11:55:57.774Z,31.06
2023-02-24T11:56:57.507Z,31.14
2023-02-24T11:57:57.463Z,31.22
2023-02-24T11:58:57.392Z,31.30
2023-02-24T11:59:57.335Z,31.50
2023-02-24T12:00:57.296Z,31.55
2023-02-24T12:01:57.248Z,31.50
2023-02-24T12:02:57.285Z,31.89
2023-02-24T12:03:57.131Z,31.89
2023-02-24T12:04:57.094Z,31.94
2023-02-24T12:05:57.171Z,32.00
2023-02-24T12:06:57.119Z,32.11
2023-02-24T12:07:56.945Z,32.06
2023-02-24T12:08:56.868Z,32.25
2023-02-24T12:10:06.975Z,32.01
2023-02-24T12:10:57.775Z,32.19
2023-02-24T12:11:56.705Z,32.40
2023-02-24T12:12:56.644Z,32.30
2023-02-24T12:13:56.585Z,32.16
2023-02-24T12:14:56.545Z,32.19
2023-02-24T12:15:56.594Z,32.13
2023-02-24T12:16:56.524Z,32.09
2023-02-24T12:17:56.378Z,32.29
2023-02-24T12:18:56.333Z,32.28
2023-02-24T12:19:56.277Z,32.39
2023-02-24T12:20:56.250Z,32.30
2023-02-24T12:21:56.168Z,32.38
2023-02-24T12:22:56.138Z,32.50
2023-02-24T12:23:56.147Z,32.54
2023-02-24T12:24:56.050Z,32.52
2023-02-24T12:25:55.977Z,32.53
2023-02-24T12:26:56.101Z,33.17
2023-02-24T12:27:55.854Z,33.16
2023-02-24T12:28:55.848Z,32.92
2023-02-24T12:29:55.775Z,32.81
2023-02-24T15:24:47.725Z,28.90
2023-02-24T15:25:47.695Z,28.83
2023-02-24T15:26:47.642Z,28.86
2023-02-24T15:27:47.611Z,28.81
2023-02-24T15:28:47.572Z,28.75
2023-02-24T15:29:47.535Z,28.76
2023-02-24T15:30:47.536Z,28.84
2023-02-24T15:31:47.609Z,28.79
2023-02-24T15:32:47.540Z,28.84
2023-02-24T15:33:47.407Z,28.84
2023-02-24T15:34:47.362Z,28.95
2023-02-24T15:35:47.333Z,28.80
2023-02-24T15:36:47.351Z,28.89
2023-02-24T15:37:47.256Z,28.88
2023-02-24T15:38:47.215Z,28.88
2023-02-24T15:39:47.187Z,28.86
2023-02-24T15:40:47.153Z,28.96
2023-02-24T15:41:47.118Z,28.92
2023-02-24T15:42:47.137Z,28.94
2023-02-24T15:43:47.036Z,28.87
2023-02-24T15:44:47.021Z,28.89
2023-02-24T15:45:46.969Z,28.88
2023-02-24T15:46:46.968Z,28.83
2023-02-24T15:47:46.912Z,28.85
2023-02-24T15:48:46.878Z,28.76
2023-02-24T15:49:46.859Z,28.91
2023-02-24T15:50:46.828Z,28.87
2023-02-24T15:51:46.817Z,28.93
2023-02-24T15:52:46.760Z,28.90
2023-02-24T15:53:46.730Z,28.90
2023-02-24T15:54:46.695Z,28.79
2023-02-24T15:55:46.677Z,28.91
2023-02-24T15:56:46.663Z,28.86
2023-02-24T15:57:46.617Z,28.97
2023-02-24T15:58:46.567Z,28.86
2023-02-24T15:59:46.578Z,28.82
2023-02-24T16:00:46.537Z,28.91
2023-02-24T16:01:46.486Z,28.82
2023-02-24T16:02:46.457Z,28.87
2023-02-24T16:03:46.500Z,28.84
2023-02-24T16:04:46.386Z,28.84
2023-02-24T16:05:46.358Z,28.90
2023-02-24T16:06:46.322Z,28.72
2023-02-24T16:07:46.288Z,28.82
2023-02-24T16:08:46.259Z,28.76
2023-02-24T16:09:46.220Z,28.77
2023-02-24T16:10:46.198Z,28.84
2023-02-24T16:11:46.170Z,28.81
2023-02-24T16:12:46.114Z,28.79
2023-02-24T16:13:46.076Z,28.87
2023-02-24T16:14:46.066Z,28.76
2023-02-24T16:15:46.007Z,28.85
2023-02-24T16:16:46.023Z,28.83
2023-02-24T16:17:45.933Z,28.80
2023-02-24T16:18:45.900Z,28.85
2023-02-24T16:19:45.878Z,28.88
2023-02-24T16:20:45.948Z,28.93
2023-02-24T16:21:45.799Z,28.81
2023-02-24T16:22:45.767Z,28.87
2023-02-24T16:23:45.739Z,28.89
2023-02-24T21:08:39.281Z,28.64
2023-02-24T21:09:39.357Z,28.65
2023-02-24T21:10:39.251Z,28.65
2023-02-24T21:11:39.250Z,28.63
2023-02-24T21:12:39.221Z,28.64
2023-02-24T21:13:39.197Z,28.66
2023-02-24T21:14:39.184Z,28.63
2023-02-24T21:15:39.234Z,28.65
2023-02-24T21:16:39.166Z,28.63
2023-02-24T21:17:39.135Z,28.65
2023-02-24T21:18:39.158Z,28.63
2023-02-24T21:19:39.097Z,28.62
2023-02-24T21:20:39.068Z,28.63
2023-02-24T21:21:39.068Z,28.64
2023-02-24T21:22:39.030Z,28.64
2023-02-24T21:23:39.014Z,28.60
2023-02-24T21:24:38.988Z,28.63
2023-02-24T21:25:38.976Z,28.65
2023-02-24T21:26:38.964Z,28.65
2023-02-24T21:27:38.930Z,28.65
2023-02-24T21:28:38.907Z,28.65
2023-02-24T21:29:38.891Z,28.65
2023-02-24T21:30:38.982Z,28.65
2023-02-24T21:31:39.061Z,28.63
2023-02-24T21:32:38.882Z,28.61
2023-02-24T21:33:38.822Z,28.61
2023-02-24T21:34:38.812Z,28.59
2023-02-24T21:35:38.778Z,28.62
2023-02-24T21:36:38.754Z,28.58
2023-02-24T21:37:38.743Z,28.60
2023-02-24T21:38:38.729Z,28.61
2023-02-24T21:39:38.714Z,28.57
2023-02-24T21:40:38.686Z,28.58
2023-02-24T21:41:38.686Z,28.60
2023-02-24T21:42:38.658Z,28.61
2023-02-24T21:43:38.641Z,28.57
2023-02-24T21:44:38.623Z,28.58
2023-02-24T21:45:38.608Z,28.57
2023-02-24T21:46:38.703Z,28.56
2023-02-24T21:47:38.582Z,28.49
2023-02-24T21:48:38.559Z,28.48
2023-02-24T21:49:38.539Z,28.48
2023-02-24T21:50:38.514Z,28.49
2023-02-24T21:51:38.498Z,28.51
2023-02-24T21:52:38.487Z,28.56
2023-02-24T21:53:38.468Z,28.59
2023-02-24T21:54:38.450Z,28.56
2023-02-24T21:55:38.446Z,28.50
2023-02-24T21:56:38.423Z,28.52
2023-02-24T21:57:40.145Z,28.51
2023-02-24T21:58:38.468Z,28.51
2023-02-24T21:59:38.461Z,28.52
2023-02-24T22:00:38.454Z,28.52
2023-02-24T22:01:38.491Z,28.52
2023-02-24T22:02:38.437Z,28.51
2023-02-24T22:03:38.403Z,28.51
2023-02-24T22:04:38.390Z,28.45
2023-02-24T22:05:38.371Z,28.49
2023-02-24T22:06:38.358Z,28.41
2023-02-24T22:07:38.357Z,28.43
2023-02-24T22:08:38.340Z,28.49
2023-02-24T22:09:38.323Z,28.49
2023-02-24T22:10:38.304Z,28.46
2023-02-24T22:11:38.294Z,28.52
2023-02-24T22:12:38.276Z,28.43
2023-02-24T22:13:38.246Z,28.52
2023-02-24T22:14:38.243Z,28.51
2023-02-24T22:15:38.217Z,28.47
2023-02-24T22:16:38.315Z,28.45
2023-02-24T22:17:38.183Z,28.48
2023-02-24T22:18:38.165Z,28.53
2023-02-24T22:19:38.142Z,28.50
2023-02-24T22:20:38.132Z,28.47
2023-02-24T22:21:38.122Z,28.49
2023-02-24T22:22:38.093Z,28.47
2023-02-24T22:23:38.071Z,28.47
2023-02-24T22:24:38.054Z,28.51
2023-02-24T22:25:38.039Z,28.52
2023-02-24T22:26:38.026Z,28.53
2023-02-24T22:27:38.007Z,28.52
2023-02-24T22:28:37.997Z,28.49
2023-02-24T22:29:37.987Z,28.47
2023-02-24T22:30:38.079Z,28.46
2023-02-24T22:31:38.104Z,28.46
2023-02-24T22:32:38.048Z,28.48
2023-02-24T22:33:37.938Z,28.53
2023-02-24T22:34:37.906Z,28.59
2023-02-24T22:35:37.894Z,28.56
2023-02-24T22:36:37.900Z,28.50
2023-02-24T22:37:37.878Z,28.51
2023-02-24T22:38:37.839Z,28.43
2023-02-24T22:39:37.824Z,28.50
2023-02-24T22:40:37.808Z,28.53
2023-02-24T22:41:37.792Z,28.51
2023-02-24T22:42:37.797Z,28.50
2023-02-24T22:43:37.776Z,28.48
2023-02-24T22:44:37.748Z,28.49
2023-02-24T22:45:37.731Z,28.49
2023-02-24T22:46:37.740Z,28.48
2023-02-24T22:47:37.788Z,28.51
2023-02-24T22:48:37.687Z,28.55
2023-02-24T22:49:37.677Z,28.53
2023-02-24T22:50:37.671Z,28.51
2023-02-24T22:51:37.621Z,28.56
2023-02-24T22:52:37.605Z,28.51
2023-02-24T22:53:37.607Z,28.49
2023-02-24T22:54:37.562Z,28.52
2023-02-24T22:55:37.546Z,28.48
2023-02-24T22:56:37.532Z,28.51
2023-02-24T22:57:37.525Z,28.52
2023-02-24T22:58:37.511Z,28.49
2023-02-24T22:59:37.495Z,28.50
2023-02-24T23:00:37.515Z,28.56
2023-02-24T23:01:37.456Z,28.57
2023-02-24T23:02:37.437Z,28.55
2023-02-24T23:03:37.443Z,28.56
2023-02-24T23:04:37.408Z,28.51
2023-02-24T23:05:37.397Z,28.55
2023-02-24T23:06:37.386Z,28.54
2023-02-24T23:07:37.383Z,28.55
2023-02-24T23:08:37.365Z,28.58
2023-02-24T23:09:37.352Z,28.57
2023-02-24T23:10:37.328Z,28.55
2023-02-24T23:11:37.318Z,28.56
2023-02-24T23:12:37.301Z,28.56
2023-02-24T23:13:37.285Z,28.55
2023-02-24T23:14:37.268Z,28.58
2023-02-24T23:15:37.255Z,28.59
2023-02-24T23:16:37.266Z,28.58
2023-02-24T23:17:37.225Z,28.56
2023-02-24T23:18:37.210Z,28.58
2023-02-24T23:19:37.189Z,28.59
2023-02-24T23:20:37.169Z,28.54
2023-02-24T23:21:37.151Z,28.55
2023-02-24T23:22:37.124Z,28.58
2023-02-24T23:23:37.119Z,28.55
2023-02-24T23:24:37.080Z,28.50
2023-02-24T23:25:37.072Z,28.51
2023-02-24T23:26:37.042Z,28.48
2023-02-24T23:27:37.032Z,28.54
2023-02-24T23:28:37.009Z,28.56
2023-02-24T23:29:36.991Z,28.51
2023-02-24T23:30:37.011Z,28.52
2023-02-24T23:31:36.975Z,28.57
2023-02-24T23:32:37.058Z,28.54
2023-02-24T23:33:36.921Z,28.51
2023-02-24T23:34:36.929Z,28.52
2023-02-24T23:35:36.891Z,28.54
2023-02-24T23:36:36.852Z,28.53
2023-02-24T23:37:36.835Z,28.53
2023-02-24T23:38:36.816Z,28.53
2023-02-24T23:39:36.795Z,28.55
2023-02-24T23:40:49.221Z,28.56
2023-02-24T23:41:37.758Z,28.58
2023-02-24T23:42:36.739Z,28.52
2023-02-24T23:43:36.734Z,28.52
2023-02-24T23:44:36.710Z,28.52
2023-02-24T23:45:36.725Z,28.50
2023-02-24T23:46:36.707Z,28.54
2023-02-24T23:47:36.674Z,28.53
2023-02-24T23:48:36.659Z,28.56
2023-02-24T23:49:47.821Z,28.56
2023-02-24T23:50:37.627Z,28.59
2023-02-24T23:51:47.493Z,28.59
2023-02-24T23:52:36.600Z,28.59
2023-02-24T23:53:36.581Z,28.60
2023-02-24T23:54:36.556Z,28.62
2023-02-24T23:55:36.563Z,28.56
2023-02-24T23:56:36.524Z,28.57
2023-02-24T23:57:36.521Z,28.52
2023-02-24T23:58:36.520Z,28.56
2023-02-24T23:59:36.505Z,28.54
